Details From CYMA - Mayo
To CYEV - Inuvik Mike Zubko
Flight Number -
Tags Generated
Created
Modified
Stats Distance 288 nm / 533 km
Max Altitude 0 ft / 0 m
Waypoints 3
Social Downloads 1
Likes 0
Share VATSIM

Download

Looking for another format? Having issues loading an existing format? Contact us
Advertisement - Login to hide

Notes

Generated

Route

CYMA YEV CYEV

ID Type Via Altitude Latitude Longitude Leg Dist Tot Dist Heading (true) Name
O CYMA APT - 0 ft / 0 m 63.61636˚ -135.88325˚ - 0 nm - -
YEV VOR - 0 ft / 0 m 68.30278˚ -133.49861˚ 287 nm 287 nm 11° / 13° -
O CYEV APT - 0 ft / 0 m 68.30319˚ -133.50528˚ 0 nm 287 nm 280° / 280° -

Altitude Profile

Advertisement - Login to hide

Weather


0- 5 10 15 20 25 30 35+ Temperature / ° C

Clouds and Precipitation
Forecast for 2017-12-13 12:00 UTC. Updated a few seconds ago

Ground ~20,000 ft ~40,000 ft Winds

CYMA

Details ICAO CYMA (YMA)
Name MAYO
Region Canada
Timezone America/Whitehorse (UTC-8.0)
Stats Elevation 1,653 ft / 504 m (AMSL)
Location 63.616388° -135.868334°
Runways 1
Magnetic Variation 20.285° E

METAR

CYMA 130900Z 03005KT 350V060 20SM SKC M11/M12 A3017 RMK SLP260

Decode

TAF

TAF CYMA 130538Z 1306/1318 VRB03KT P6SM SKC BECMG 1315/1317 02008KT RMK NXT FCST BY 131200Z

Decode

Departure Runways

ID Width Length Bearing (true) Bearing (mag) Surface Threshold Offset Overrun Length
06 100 ft / 30 m 4,839 ft / 1,475 m 89.71° 69.42° Gravel 0 ft / 0 m 0 ft / 0 m
24 100 ft / 30 m 4,839 ft / 1,475 m 269.74° 249.45° Gravel 0 ft / 0 m 0 ft / 0 m

CYEV

Details ICAO CYEV (YEV)
Name INUVIK MIKE ZUBKO
Region Canada
Timezone America/Inuvik (UTC-7.0)
Stats Elevation 224 ft / 68 m (AMSL)
Location 68.303792° -133.483167°
Runways 1
Magnetic Variation 21.601° E

METAR

CYEV 130900Z 06005KT 10SM -SN FEW003 OVC060 M16/M18 A3012 RMK ST2SC6 SLP209

Decode

TAF

TAF AMD TAF AMD CYEV 130802Z 1308/1319 06005KT P6SM IC OVC060 TEMPO 1308/1319 BKN003 OVC060 RMK NXT FCST BY 131300Z

Decode

Destination Runways

ID Width Length Bearing (true) Bearing (mag) Surface Threshold Offset Overrun Length
06 150 ft / 46 m 5,982 ft / 1,823 m 85.80° 64.20° Asphalt 0 ft / 0 m 0 ft / 0 m
24 150 ft / 46 m 5,982 ft / 1,823 m 265.84° 244.24° Asphalt 0 ft / 0 m 0 ft / 0 m